Time;durP1;ratioP1;P1;durP2;ratioP2;P2;SDS_P1;SDS_P2;PMS_P1;PMS_P2;Temp;Humidity;BMP_temperature;BMP_pressure;BME280_temperature;BME280_humidity;BME280_pressure;Samples;Min_cycle;Max_cycle;Signal;HPM_P1;HPM_P2
2023/06/16 00:00:03;;;;;;;;;;;22.00;40.90;;;21.06;40.55;101168.47;12251187;19;19918;-85
2023/06/16 00:04:17;;;;;;;;;;;21.90;40.80;;;21.07;40.93;101172.81;12258211;19;19914;-85
2023/06/16 00:08:19;;;;;;;;;;;21.90;40.90;;;20.98;40.56;101163.03;12256154;19;19930;-85
2023/06/16 00:12:20;;;;;;;;;;;21.80;40.90;;;21.02;40.97;101169.75;12257305;19;19907;-85
2023/06/16 00:16:23;;;;;;;;;;;21.80;40.90;;;20.81;41.04;101134.53;12256779;19;19919;-85
2023/06/16 00:20:26;;;;;;;;;;;21.80;40.90;;;21.02;40.75;101160.94;12257408;19;19918;-85
2023/06/16 00:24:28;;;;;;;;;;;21.80;41.00;;;21.06;41.03;101159.66;12262639;19;19951;-85
2023/06/16 00:28:29;;;;;;;;;;;21.80;41.10;;;21.03;40.74;101157.28;12262767;19;19925;-85
2023/06/16 00:32:31;;;;;;;;;;;21.80;41.50;;;20.95;41.12;101142.06;12261245;19;19961;-85
2023/06/16 00:36:33;;;;;;;;;;;21.70;41.20;;;20.87;40.67;101147.25;12266191;19;19935;-85
2023/06/16 00:40:34;;;;;;;;;;;21.70;41.10;;;20.84;40.76;101148.38;12262780;19;19914;-85
2023/06/16 00:44:37;;;;;;;;;;;21.60;41.10;;;20.76;40.79;101133.13;12264707;19;19923;-85
2023/06/16 00:48:40;;;;;;;;;;;21.60;41.30;;;20.75;41.31;101141.25;12263021;19;20358;-85
2023/06/16 00:52:42;;;;;;;;;;;21.60;41.20;;;20.79;40.92;101139.97;12263462;19;19922;-85
2023/06/16 00:56:43;;;;;;;;;;;21.60;41.30;;;20.78;41.07;101139.16;12263495;19;19930;-86
2023/06/16 01:00:46;;;;;;;;;;;21.50;41.30;;;20.72;41.47;101131.75;12260746;19;19919;-85
2023/06/16 01:04:51;;;;;;;;;;;21.60;41.40;;;20.76;40.99;101138.44;12263467;19;19931;-85
2023/06/16 01:09:13;;;;;;;;;;;21.60;41.40;;;20.63;41.16;101114.03;12261414;19;20245;-85
2023/06/16 01:13:44;;;;;;;;;;;21.50;41.40;;;20.70;41.49;101131.06;12258986;19;19975;-85
2023/06/16 01:17:47;;;;;;;;;;;21.50;41.50;;;20.68;41.26;101119.72;12252944;19;19919;-85
2023/06/16 01:22:00;;;;;;;;;;;21.60;41.60;;;20.75;41.49;101134.13;12252564;19;19915;-85
2023/06/16 01:26:04;;;;;;;;;;;21.50;41.50;;;20.68;41.78;101119.72;12248398;19;19929;-85
2023/06/16 01:30:07;;;;;;;;;;;21.50;41.70;;;20.50;41.40;101090.41;12249488;19;20325;-85
2023/06/16 01:34:10;;;;;;;;;;;21.50;41.60;;;20.62;41.56;101115.00;12252086;19;19922;-85
2023/06/16 01:38:13;;;;;;;;;;;21.50;41.60;;;20.68;41.75;101125.03;12250585;19;19921;-85
2023/06/16 01:42:15;;;;;;;;;;;21.50;41.80;;;20.69;41.34;101121.44;12249673;19;19918;-85
2023/06/16 01:46:16;;;;;;;;;;;21.50;41.80;;;20.64;41.62;101106.91;12248332;19;19922;-85
2023/06/16 01:50:18;;;;;;;;;;;21.50;41.80;;;20.68;41.68;101118.91;12246741;19;19945;-85
2023/06/16 01:54:20;;;;;;;;;;;21.50;41.70;;;20.61;41.71;101112.50;12249632;19;20374;-85
2023/06/16 01:58:25;;;;;;;;;;;21.50;41.70;;;20.67;41.76;101112.75;12249109;19;20322;-85
2023/06/16 02:02:28;;;;;;;;;;;21.50;41.70;;;20.64;41.58;101105.09;12249455;19;19918;-85
2023/06/16 02:06:58;;;;;;;;;;;21.50;41.70;;;20.65;41.95;101109.41;12249586;19;20330;-85
2023/06/16 02:10:59;;;;;;;;;;;21.50;41.70;;;20.64;41.77;101110.41;12247445;19;19915;-85
2023/06/16 02:15:03;;;;;;;;;;;21.50;41.80;;;20.55;41.89;101092.69;12251841;19;19915;-85
2023/06/16 02:19:05;;;;;;;;;;;21.50;41.70;;;20.63;41.61;101102.56;12247045;19;20318;-85
2023/06/16 02:23:06;;;;;;;;;;;21.50;41.70;;;20.36;41.60;101056.34;12248541;19;19915;-85
2023/06/16 02:27:08;;;;;;;;;;;21.40;41.80;;;20.54;42.08;101090.97;12248838;19;19923;-85
2023/06/16 02:31:12;;;;;;;;;;;21.40;41.90;;;20.47;41.93;101089.84;12252339;19;19930;-85
2023/06/16 02:35:13;;;;;;;;;;;21.40;41.90;;;20.54;42.21;101096.28;12256638;19;19919;-85
2023/06/16 02:39:15;;;;;;;;;;;21.40;41.90;;;20.27;42.03;101057.16;12258306;19;19915;-86
2023/06/16 02:43:18;;;;;;;;;;;21.30;41.90;;;20.49;41.77;101090.53;12255443;19;19921;-85
2023/06/16 02:47:20;;;;;;;;;;;21.30;41.80;;;20.40;42.01;101072.81;12249083;19;19926;-85
2023/06/16 02:51:22;;;;;;;;;;;21.30;41.80;;;20.38;41.80;101074.75;12256294;19;19914;-85
2023/06/16 02:55:24;;;;;;;;;;;21.30;41.90;;;20.36;42.13;101076.69;12250156;19;19923;-85
2023/06/16 02:59:30;;;;;;;;;;;21.30;41.90;;;20.40;42.19;101088.72;12249826;19;20322;-85
2023/06/16 03:03:34;;;;;;;;;;;21.20;41.80;;;20.41;42.13;101090.38;12254894;19;19922;-86
2023/06/16 03:07:53;;;;;;;;;;;21.30;41.90;;;20.32;42.24;101074.34;12250964;19;20275;-85
2023/06/16 03:11:57;;;;;;;;;;;21.20;42.20;;;20.38;41.98;101074.75;12251462;19;20450;-85
2023/06/16 03:16:02;;;;;;;;;;;21.20;41.90;;;20.38;42.34;101075.59;12253100;19;19915;-85
2023/06/16 03:20:05;;;;;;;;;;;21.20;41.90;;;20.37;42.19;101071.28;12249935;19;19915;-85
2023/06/16 03:24:18;;;;;;;;;;;21.20;41.90;;;20.39;42.48;101076.41;12250014;19;20336;-85
2023/06/16 03:28:20;;;;;;;;;;;21.20;41.90;;;20.34;42.15;101075.03;12248518;19;19918;-85
2023/06/16 03:32:24;;;;;;;;;;;21.20;42.00;;;20.23;42.36;101053.97;12244930;19;19938;-85
2023/06/16 03:36:27;;;;;;;;;;;21.20;42.00;;;20.16;42.61;101054.66;12250492;19;20340;-85
2023/06/16 03:40:28;;;;;;;;;;;21.20;42.10;;;20.28;42.62;101072.09;12248089;19;19919;-85
2023/06/16 03:44:30;;;;;;;;;;;21.10;42.10;;;20.25;42.44;101075.88;12249419;19;19932;-86
2023/06/16 03:48:32;;;;;;;;;;;21.10;42.20;;;20.26;42.59;101084.69;12250169;19;19961;-85
2023/06/16 03:52:36;;;;;;;;;;;21.10;42.20;;;20.15;42.72;101068.91;12247796;19;19927;-86
2023/06/16 03:56:38;;;;;;;;;;;21.10;42.20;;;20.21;42.45;101090.38;12248018;19;19922;-85
2023/06/16 04:00:43;;;;;;;;;;;21.00;42.40;;;20.11;42.38;101076.28;12242567;19;19914;-85
2023/06/16 04:04:47;;;;;;;;;;;21.00;42.50;;;20.12;42.58;101093.88;12248158;19;19971;-85
2023/06/16 04:08:49;;;;;;;;;;;21.00;42.40;;;20.09;42.80;101095.00;12242154;19;20227;-84
2023/06/16 04:12:52;;;;;;;;;;;20.90;42.40;;;20.00;42.89;101084.34;12256453;19;19914;-84
2023/06/16 04:16:55;;;;;;;;;;;20.90;42.60;;;19.92;42.42;101070.94;12261745;19;19928;-85
2023/06/16 04:20:57;;;;;;;;;;;20.90;42.60;;;19.95;42.63;101081.28;12259354;19;19935;-85
2023/06/16 04:24:58;;;;;;;;;;;20.80;43.30;;;19.90;42.55;101081.69;12261922;19;20652;-85
2023/06/16 04:29:03;;;;;;;;;;;20.90;42.80;;;19.90;42.88;101076.38;12256551;19;19911;-83
2023/06/16 04:33:06;;;;;;;;;;;20.80;42.70;;;19.75;42.99;101062.69;12257532;19;19915;-83
2023/06/16 04:37:11;;;;;;;;;;;20.80;42.50;;;20.00;43.05;101092.31;12259217;19;19959;-83
2023/06/16 04:41:13;;;;;;;;;;;20.80;42.60;;;19.93;42.75;101083.22;12266086;19;19926;-84
2023/06/16 04:45:15;;;;;;;;;;;20.80;42.70;;;19.95;42.78;101073.31;12266902;19;19922;-84
2023/06/16 04:49:20;;;;;;;;;;;20.80;42.80;;;19.94;42.83;101071.66;12265434;19;19919;-84
2023/06/16 04:53:23;;;;;;;;;;;20.90;42.80;;;20.02;42.83;101083.25;12271186;19;20354;-84
2023/06/16 04:57:25;;;;;;;;;;;20.80;42.60;;;19.84;42.78;101056.56;12270071;19;19925;-84
2023/06/16 05:01:26;;;;;;;;;;;20.90;42.90;;;19.95;42.81;101075.97;12268222;19;19914;-84
2023/06/16 05:05:28;;;;;;;;;;;20.90;43.30;;;19.84;42.99;101061.84;12267353;19;20353;-84
2023/06/16 05:09:30;;;;;;;;;;;20.80;43.10;;;19.94;43.14;101071.66;12266553;19;19917;-84
2023/06/16 05:13:32;;;;;;;;;;;20.80;42.80;;;19.82;43.01;101055.88;12268761;19;19952;-84
2023/06/16 05:17:34;;;;;;;;;;;20.80;43.40;;;19.95;43.09;101073.31;12265479;19;19970;-84
2023/06/16 05:21:36;;;;;;;;;;;20.80;43.10;;;19.91;42.96;101072.78;12266508;19;20304;-84
2023/06/16 05:25:37;;;;;;;;;;;20.80;43.00;;;19.87;42.94;101066.91;12267642;19;19946;-84
2023/06/16 05:29:40;;;;;;;;;;;20.80;43.20;;;19.93;43.44;101080.56;12263878;19;19923;-84
2023/06/16 05:33:42;;;;;;;;;;;20.80;43.30;;;19.92;43.43;101082.38;12270455;19;19936;-84
2023/06/16 05:37:44;;;;;;;;;;;20.80;43.10;;;19.94;43.14;101075.13;12265765;19;20644;-84
2023/06/16 05:41:47;;;;;;;;;;;20.80;43.20;;;19.95;43.31;101071.50;12262669;19;19922;-84
2023/06/16 05:45:51;;;;;;;;;;;20.80;43.10;;;19.81;43.49;101051.53;12265306;19;19911;-83
2023/06/16 05:49:53;;;;;;;;;;;20.80;43.10;;;19.84;43.35;101064.50;12255972;19;20377;-83
2023/06/16 05:53:55;;;;;;;;;;;20.80;43.30;;;19.87;43.31;101068.69;12252982;19;19919;-82
2023/06/16 05:57:58;;;;;;;;;;;20.80;43.20;;;19.91;43.28;101072.78;12252893;19;19996;-82
2023/06/16 06:01:59;;;;;;;;;;;20.80;43.30;;;19.89;43.63;101072.06;12250776;19;20362;-83
2023/06/16 06:06:02;;;;;;;;;;;20.80;43.20;;;19.91;43.69;101074.59;12254195;19;20333;-84
2023/06/16 06:10:04;;;;;;;;;;;20.80;43.60;;;19.96;43.73;101077.66;12249690;19;19961;-82
2023/06/16 06:14:08;;;;;;;;;;;20.80;43.50;;;19.95;43.43;101070.66;12251369;19;19921;-83
2023/06/16 06:18:11;;;;;;;;;;;20.80;43.80;;;19.91;43.76;101067.47;12248222;19;20348;-83
2023/06/16 06:22:15;;;;;;;;;;;20.80;44.40;;;19.98;43.69;101067.75;12257673;19;20393;-83
2023/06/16 06:26:17;;;;;;;;;;;20.90;44.40;;;20.05;43.64;101080.31;12251341;19;19931;-83
2023/06/16 06:30:19;;;;;;;;;;;20.90;44.00;;;20.02;43.43;101085.91;12245832;19;19930;-84
2023/06/16 06:34:21;;;;;;;;;;;20.90;44.10;;;20.04;43.56;101094.56;12251566;19;19923;-84
2023/06/16 06:38:23;;;;;;;;;;;20.90;44.20;;;20.00;43.92;101084.34;12249218;19;19915;-83
2023/06/16 06:42:26;;;;;;;;;;;20.90;44.20;;;20.07;43.64;101093.44;12254673;19;19914;-83
2023/06/16 06:46:31;;;;;;;;;;;21.00;44.00;;;19.99;43.66;101080.03;12250905;19;19925;-84
2023/06/16 06:50:33;;;;;;;;;;;21.00;44.50;;;20.05;43.92;101098.88;12254796;19;19915;-83
2023/06/16 06:54:34;;;;;;;;;;;21.00;44.40;;;20.16;43.99;101100.56;12253841;19;19930;-82
2023/06/16 06:58:36;;;;;;;;;;;21.00;44.20;;;20.14;43.95;101099.84;12251268;19;19911;-82
2023/06/16 07:02:38;;;;;;;;;;;21.10;44.50;;;20.22;44.09;101109.78;12252150;19;19915;-81
2023/06/16 07:06:39;;;;;;;;;;;21.10;44.20;;;20.26;43.93;101114.69;12251970;19;19926;-82
2023/06/16 07:10:41;;;;;;;;;;;21.20;44.40;;;20.27;43.75;101110.22;12245815;19;19938;-82
2023/06/16 07:14:45;;;;;;;;;;;21.20;44.60;;;20.29;44.04;101114.41;12253395;19;19915;-82
2023/06/16 07:18:47;;;;;;;;;;;21.20;44.90;;;20.33;44.17;101118.47;12248284;19;19936;-82
2023/06/16 07:22:48;;;;;;;;;;;21.30;44.60;;;20.26;43.77;101100.59;12252154;19;19919;-83
2023/06/16 07:26:50;;;;;;;;;;;21.30;44.20;;;20.40;44.13;101117.91;12251505;19;19922;-82
2023/06/16 07:30:54;;;;;;;;;;;21.30;44.40;;;20.39;43.93;101117.06;12252223;19;19951;-83
2023/06/16 07:34:56;;;;;;;;;;;21.30;44.30;;;20.43;44.16;101121.09;12256107;19;19919;-83
2023/06/16 07:38:58;;;;;;;;;;;21.40;45.20;;;20.38;44.27;101106.59;12254642;19;20249;-83
2023/06/16 07:42:59;;;;;;;;;;;21.40;44.40;;;20.18;44.27;101068.63;12263510;19;19978;-82
2023/06/16 07:47:01;;;;;;;;;;;21.40;45.30;;;20.47;44.02;101106.59;12263459;19;19918;-82
2023/06/16 07:51:03;;;;;;;;;;;21.40;45.10;;;20.55;44.28;101127.16;12273042;19;19926;-83
2023/06/16 07:55:05;;;;;;;;;;;21.40;45.00;;;20.62;44.22;101115.00;12273029;19;19960;-83
2023/06/16 07:59:07;;;;;;;;;;;21.50;44.90;;;20.41;44.04;101072.66;12263085;19;19929;-82
2023/06/16 08:03:09;;;;;;;;;;;21.50;45.10;;;20.61;44.34;101100.06;12257736;19;20550;-82
2023/06/16 08:07:10;;;;;;;;;;;21.60;45.10;;;20.67;44.43;101103.97;12255697;19;19953;-81
2023/06/16 08:11:12;;;;;;;;;;;21.60;45.00;;;20.61;44.52;101097.41;12256374;19;20282;-82
2023/06/16 08:15:13;;;;;;;;;;;21.60;45.80;;;20.63;44.38;101106.06;12257107;19;20333;-82
2023/06/16 08:19:14;;;;;;;;;;;21.70;45.40;;;20.73;44.63;101130.78;12254742;19;19986;-82
2023/06/16 08:23:16;;;;;;;;;;;21.60;45.70;;;20.73;44.55;101120.16;12264014;19;19915;-82
2023/06/16 08:27:17;;;;;;;;;;;21.70;45.00;;;20.71;44.44;101124.78;12267045;19;19926;-83
2023/06/16 08:31:18;;;;;;;;;;;21.60;44.80;;;20.69;44.47;101109.97;12263521;19;20014;-83
2023/06/16 08:35:20;;;;;;;;;;;21.60;45.00;;;20.66;44.35;101103.13;12265251;19;20278;-83
2023/06/16 08:39:21;;;;;;;;;;;21.70;44.80;;;20.77;44.63;101107.47;12259294;19;19923;-83
2023/06/16 08:43:23;;;;;;;;;;;21.60;45.30;;;20.77;44.49;101091.53;12263527;19;19921;-83
2023/06/16 08:47:25;;;;;;;;;;;21.70;45.20;;;20.81;44.85;101084.09;12260208;19;19934;-83
2023/06/16 08:51:27;;;;;;;;;;;21.70;45.40;;;20.89;44.59;101097.50;12261428;19;19915;-83
2023/06/16 08:55:29;;;;;;;;;;;21.80;45.20;;;20.96;44.70;101095.97;12257994;19;19952;-83
2023/06/16 08:59:32;;;;;;;;;;;21.80;45.30;;;20.96;44.65;101080.03;12252381;19;19930;-83
2023/06/16 09:03:35;;;;;;;;;;;21.90;45.70;;;21.10;44.87;101090.19;12256196;19;19923;-82
2023/06/16 09:07:42;;;;;;;;;;;21.80;44.80;;;21.06;44.88;101072.03;12253513;19;19918;-83
2023/06/16 09:11:43;;;;;;;;;;;22.10;45.10;;;21.33;44.73;101089.81;12242668;19;19930;-83
2023/06/16 09:15:47;;;;;;;;;;;22.20;45.00;;;21.46;44.70;101093.03;12255721;19;19919;-83
2023/06/16 09:19:50;;;;;;;;;;;22.30;45.90;;;21.54;44.89;101079.84;12248902;19;19921;-83
2023/06/16 09:23:58;;;;;;;;;;;22.40;45.60;;;21.69;44.89;101082.84;12255296;19;20002;-83
2023/06/16 09:28:09;;;;;;;;;;;22.60;45.60;;;21.78;44.96;101075.78;12253308;19;20349;-83
2023/06/16 09:32:11;;;;;;;;;;;22.80;45.80;;;21.82;44.91;101085.16;12252735;19;19919;-83
2023/06/16 09:36:25;;;;;;;;;;;22.80;44.80;;;21.84;45.11;101101.78;12252384;19;19911;-83
2023/06/16 09:40:28;;;;;;;;;;;22.80;46.10;;;21.82;44.71;101098.47;12252250;19;19919;-82
2023/06/16 09:44:31;;;;;;;;;;;22.80;45.10;;;21.80;44.82;101108.41;12252484;19;19975;-83
2023/06/16 09:48:34;;;;;;;;;;;22.80;44.80;;;21.77;44.88;101116.69;12253902;19;20312;-83
2023/06/16 09:52:36;;;;;;;;;;;22.80;45.50;;;21.68;45.03;101122.84;12254380;19;19915;-83
2023/06/16 09:56:39;;;;;;;;;;;22.70;45.50;;;21.57;44.80;101116.75;12262896;19;19996;-82
2023/06/16 10:00:41;;;;;;;;;;;22.60;45.90;;;21.49;45.08;101108.66;12247321;19;19923;-82
2023/06/16 10:04:43;;;;;;;;;;;22.50;45.10;;;21.42;44.87;101107.59;12250640;19;19927;-82
2023/06/16 10:08:47;;;;;;;;;;;22.50;45.00;;;21.45;44.99;101115.28;12248503;19;19933;-83
2023/06/16 10:12:50;;;;;;;;;;;22.40;45.30;;;21.37;45.09;101099.19;12246028;19;19919;-81
2023/06/16 10:16:54;;;;;;;;;;;22.30;45.10;;;21.33;44.84;101103.09;12250409;19;19919;-82
2023/06/16 10:20:56;;;;;;;;;;;22.30;46.20;;;21.39;44.98;101107.91;12244469;19;19918;-82
2023/06/16 10:25:00;;;;;;;;;;;22.20;45.40;;;21.32;44.83;101093.47;12251700;19;19919;-82
2023/06/16 10:29:02;;;;;;;;;;;22.20;45.60;;;21.34;45.11;101099.50;12250912;19;19943;-83
2023/06/16 10:33:16;;;;;;;;;;;22.20;45.90;;;21.35;44.91;101101.16;12246537;19;19943;-82
2023/06/16 10:37:21;;;;;;;;;;;22.20;45.70;;;21.39;45.00;101102.59;12248443;19;19915;-82
2023/06/16 10:41:23;;;;;;;;;;;22.20;45.70;;;21.37;45.27;101101.84;12245532;19;19923;-82
2023/06/16 10:45:31;;;;;;;;;;;22.20;45.50;;;21.39;45.29;101113.22;12250820;19;19930;-82
2023/06/16 10:49:43;;;;;;;;;;;22.20;46.00;;;21.36;45.01;101116.97;12255553;19;19915;-84
2023/06/16 10:53:44;;;;;;;;;;;22.20;45.80;;;21.31;45.16;101102.44;12257139;19;19915;-84
2023/06/16 10:57:56;;;;;;;;;;;22.20;45.60;;;21.06;45.11;101064.88;12262595;19;19926;-83
2023/06/16 11:01:58;;;;;;;;;;;22.20;45.50;;;21.36;45.16;101108.13;12261806;19;19919;-83
2023/06/16 11:06:00;;;;;;;;;;;22.20;46.40;;;21.36;45.11;101098.38;12259908;19;20357;-83
2023/06/16 11:10:02;;;;;;;;;;;22.20;46.20;;;21.43;45.25;101104.78;12263348;19;19941;-83
2023/06/16 11:14:04;;;;;;;;;;;22.30;46.00;;;21.43;45.57;101101.28;12260453;19;19919;-83
2023/06/16 11:18:06;;;;;;;;;;;22.30;46.60;;;21.48;45.20;101106.19;12272568;19;20263;-83
2023/06/16 11:22:08;;;;;;;;;;;22.30;45.90;;;21.43;45.37;101098.63;12271458;19;19964;-83
2023/06/16 11:26:15;;;;;;;;;;;22.30;45.70;;;21.45;45.23;101086.03;12273300;19;19919;-83
2023/06/16 11:30:16;;;;;;;;;;;22.40;46.10;;;21.53;45.07;101088.81;12271037;19;19923;-83
2023/06/16 11:34:21;;;;;;;;;;;22.40;45.60;;;21.63;45.52;101091.44;12275888;19;19926;-83
2023/06/16 11:38:25;;;;;;;;;;;22.50;46.30;;;21.68;45.31;101086.47;12270916;19;19926;-83
2023/06/16 11:42:26;;;;;;;;;;;22.50;47.00;;;21.80;45.40;101095.09;12273965;19;19919;-82
2023/06/16 11:46:32;;;;;;;;;;;22.60;46.20;;;21.74;45.47;101072.63;12275380;19;19943;-83
2023/06/16 11:50:35;;;;;;;;;;;22.70;45.90;;;21.71;45.16;101059.63;12270334;19;20669;-87
2023/06/16 11:54:37;;;;;;;;;;;22.80;45.70;;;21.95;45.46;101101.56;12268728;19;19918;-82
2023/06/16 11:58:39;;;;;;;;;;;22.90;46.00;;;21.92;45.53;101085.91;12257399;19;19922;-84
2023/06/16 12:02:42;;;;;;;;;;;22.90;45.20;;;22.00;45.28;101099.31;12261335;19;19915;-84
2023/06/16 12:06:45;;;;;;;;;;;22.90;45.10;;;21.99;45.53;101092.31;12258777;19;19918;-84
2023/06/16 12:10:54;;;;;;;;;;;23.00;45.10;;;22.04;45.32;101097.19;12259605;19;19941;-84
2023/06/16 12:15:01;;;;;;;;;;;23.00;45.00;;;22.03;45.39;101079.53;12259358;19;19911;-84
2023/06/16 12:19:02;;;;;;;;;;;23.00;44.90;;;22.07;45.32;101083.59;12255341;19;19923;-84
2023/06/16 12:23:10;;;;;;;;;;;23.10;45.40;;;22.09;45.65;101079.78;12256849;19;20261;-84
2023/06/16 12:27:24;;;;;;;;;;;23.10;45.10;;;22.29;45.42;101099.13;12252908;19;20369;-84
2023/06/16 12:31:26;;;;;;;;;;;23.20;45.50;;;22.22;45.53;101073.28;12259144;19;19903;-85
2023/06/16 12:35:28;;;;;;;;;;;23.30;45.00;;;22.24;45.62;101071.31;12258227;19;19915;-84
2023/06/16 12:39:30;;;;;;;;;;;23.40;45.10;;;22.38;45.47;101108.03;12255842;19;19919;-83
2023/06/16 12:43:33;;;;;;;;;;;23.40;44.60;;;22.36;45.36;101111.81;12255048;19;19919;-83
2023/06/16 12:47:35;;;;;;;;;;;23.40;44.50;;;22.29;45.35;101108.94;12255819;19;19940;-83
2023/06/16 12:51:36;;;;;;;;;;;23.40;44.60;;;22.27;45.33;101119.72;12256689;19;20297;-82
2023/06/16 12:55:38;;;;;;;;;;;23.30;44.70;;;22.29;45.14;101127.56;12254016;19;19938;-82
2023/06/16 12:59:40;;;;;;;;;;;23.20;44.80;;;22.21;45.10;101130.16;12251595;19;19998;-81
2023/06/16 13:03:46;;;;;;;;;;;23.20;44.70;;;22.11;45.13;101124.84;12253038;19;20241;-81
2023/06/16 13:07:51;;;;;;;;;;;23.10;44.70;;;22.04;45.17;101121.13;12254575;19;19911;-81
2023/06/16 13:11:57;;;;;;;;;;;23.00;45.00;;;21.99;45.15;101107.44;12252311;19;19915;-82
2023/06/16 13:15:58;;;;;;;;;;;22.90;45.00;;;22.03;45.48;101114.97;12256890;19;19915;-82
2023/06/16 13:20:00;;;;;;;;;;;22.90;45.10;;;22.01;45.37;101103.66;12250879;19;19923;-82
2023/06/16 13:24:01;;;;;;;;;;;22.80;45.20;;;21.96;45.32;101087.31;12280064;19;19945;-82
2023/06/16 13:28:03;;;;;;;;;;;22.80;45.30;;;22.03;45.18;101088.34;12272906;19;19919;-82
2023/06/16 13:32:05;;;;;;;;;;;22.80;45.70;;;21.98;45.25;101065.84;12254435;19;20412;-83
2023/06/16 13:36:06;;;;;;;;;;;22.80;45.90;;;22.04;45.75;101086.56;12253766;19;19918;-84
2023/06/16 13:40:08;;;;;;;;;;;22.90;46.00;;;22.19;45.43;101097.53;12248572;19;19923;-84
2023/06/16 13:44:11;;;;;;;;;;;23.00;46.10;;;22.23;45.40;101088.28;12253184;19;19927;-84
2023/06/16 13:48:15;;;;;;;;;;;23.00;45.90;;;22.25;45.78;101083.63;12252506;19;19952;-84
2023/06/16 13:52:16;;;;;;;;;;;23.00;45.70;;;22.31;45.84;101080.38;12253777;19;20345;-84
2023/06/16 13:56:21;;;;;;;;;;;23.10;46.40;;;22.34;45.71;101069.41;12252238;19;19910;-84
2023/06/16 14:00:23;;;;;;;;;;;23.20;45.90;;;22.45;45.71;101065.69;12248483;19;19915;-84
2023/06/16 14:04:25;;;;;;;;;;;23.20;46.10;;;22.54;45.49;101067.41;12250952;19;19989;-84
2023/06/16 14:08:26;;;;;;;;;;;23.40;46.10;;;22.60;45.46;101065.94;12250798;19;19926;-84
2023/06/16 14:12:28;;;;;;;;;;;23.40;45.70;;;22.59;45.86;101043.00;12248488;19;19939;-84
2023/06/16 14:16:29;;;;;;;;;;;23.60;45.60;;;22.65;45.60;101037.03;12251496;19;19935;-84
2023/06/16 14:20:31;;;;;;;;;;;23.60;45.70;;;22.78;45.87;101042.78;12245431;19;19926;-84
2023/06/16 14:24:32;;;;;;;;;;;23.70;45.60;;;22.89;45.57;101049.69;12249373;19;20017;-84
2023/06/16 14:28:34;;;;;;;;;;;23.80;45.40;;;22.87;45.82;101036.53;12248854;19;19911;-84
2023/06/16 14:32:36;;;;;;;;;;;23.80;45.20;;;22.94;45.84;101034.91;12247323;19;19988;-84
2023/06/16 14:36:38;;;;;;;;;;;23.90;45.20;;;23.08;45.89;101038.00;12246584;19;19926;-83
2023/06/16 14:40:39;;;;;;;;;;;23.90;45.20;;;23.21;45.71;101043.72;12246894;19;19919;-83
2023/06/16 14:44:41;;;;;;;;;;;24.10;45.30;;;23.31;45.92;101046.28;12247171;19;19910;-83
2023/06/16 14:48:43;;;;;;;;;;;24.20;45.50;;;23.38;46.03;101048.13;12246209;19;19919;-83
2023/06/16 14:52:44;;;;;;;;;;;24.30;45.00;;;23.41;45.76;101039.81;12247091;19;20281;-83
2023/06/16 14:56:46;;;;;;;;;;;24.30;44.70;;;23.44;45.90;101035.16;12248212;19;19919;-83
2023/06/16 15:00:47;;;;;;;;;;;24.40;44.70;;;23.48;45.49;101037.34;12244875;19;20456;-83
2023/06/16 15:04:49;;;;;;;;;;;24.50;44.70;;;23.47;45.68;101035.69;12245411;19;20301;-84
2023/06/16 15:08:51;;;;;;;;;;;24.50;44.50;;;23.53;45.32;101047.53;12245328;19;19919;-83
2023/06/16 15:12:52;;;;;;;;;;;24.40;44.40;;;23.49;45.52;101036.34;12245664;19;19923;-83
2023/06/16 15:16:54;;;;;;;;;;;24.50;44.50;;;23.42;45.31;101049.47;12247860;19;19933;-83
2023/06/16 15:20:56;;;;;;;;;;;24.40;44.60;;;23.33;45.59;101049.59;12242651;19;19926;-83
2023/06/16 15:24:57;;;;;;;;;;;24.30;44.40;;;23.10;45.48;101025.34;12246043;19;19925;-83
2023/06/16 15:28:59;;;;;;;;;;;24.20;44.40;;;23.07;45.23;101026.50;12239512;19;19923;-84
2023/06/16 15:33:01;;;;;;;;;;;24.10;44.50;;;23.04;45.47;101018.00;12243148;19;19918;-83
2023/06/16 15:37:03;;;;;;;;;;;24.00;44.60;;;23.10;45.28;101015.53;12243545;19;19919;-83
2023/06/16 15:41:06;;;;;;;;;;;24.00;44.80;;;23.04;45.27;100997.53;12242148;19;19931;-83
2023/06/16 15:45:08;;;;;;;;;;;24.00;45.00;;;23.07;45.17;100999.03;12242825;19;19929;-82
2023/06/16 15:49:10;;;;;;;;;;;23.90;44.90;;;23.02;45.19;100990.69;12242741;19;19982;-83
2023/06/16 15:53:12;;;;;;;;;;;23.90;44.80;;;22.99;45.41;100993.69;12243590;19;20326;-83
2023/06/16 15:57:13;;;;;;;;;;;23.80;44.90;;;22.92;45.30;100974.78;12244048;19;19918;-83
2023/06/16 16:01:15;;;;;;;;;;;23.80;45.00;;;22.98;45.46;100984.84;12245296;19;19933;-84
2023/06/16 16:05:18;;;;;;;;;;;23.80;45.10;;;22.97;45.15;100975.19;12258495;19;19915;-84
2023/06/16 16:09:20;;;;;;;;;;;23.70;45.20;;;22.83;45.19;100949.94;12252822;19;20273;-84
2023/06/16 16:13:22;;;;;;;;;;;23.70;45.20;;;22.94;45.38;100962.97;12257775;19;19938;-84
2023/06/16 16:17:28;;;;;;;;;;;23.80;45.40;;;22.94;45.40;100968.31;12250895;19;19928;-84
2023/06/16 16:21:29;;;;;;;;;;;23.70;45.60;;;22.91;45.53;100962.47;12252761;19;19914;-84
2023/06/16 16:25:31;;;;;;;;;;;23.70;45.30;;;22.88;45.71;100963.63;12256556;19;19911;-84
2023/06/16 16:29:32;;;;;;;;;;;23.70;45.50;;;22.90;45.38;100963.44;12254567;19;19926;-84
2023/06/16 16:33:33;;;;;;;;;;;23.70;45.70;;;22.78;45.43;100949.59;12249440;19;19935;-83
2023/06/16 16:37:35;;;;;;;;;;;23.70;45.50;;;22.78;45.61;100946.94;12253884;19;19951;-84
2023/06/16 16:41:36;;;;;;;;;;;23.60;45.40;;;22.85;45.51;100953.28;12249582;19;19994;-84
2023/06/16 16:45:37;;;;;;;;;;;23.60;45.50;;;22.83;45.37;100954.44;12256261;19;19918;-84
2023/06/16 16:49:40;;;;;;;;;;;23.60;45.50;;;22.74;45.77;100942.94;12252363;19;19915;-83
2023/06/16 16:53:41;;;;;;;;;;;23.60;45.60;;;22.77;45.65;100971.06;12255809;19;19923;-84
2023/06/16 16:57:42;;;;;;;;;;;23.60;47.00;;;22.63;45.49;100965.34;12253249;19;19923;-84
2023/06/16 17:01:45;;;;;;;;;;;23.50;48.60;;;22.51;45.66;101002.00;12254716;19;19951;-84
2023/06/16 17:05:46;;;;;;;;;;;23.40;47.40;;;22.22;45.89;100993.47;12256334;19;19922;-84
2023/06/16 17:09:48;;;;;;;;;;;23.20;46.60;;;22.12;45.85;100992.72;12251730;19;19931;-84
2023/06/16 17:13:49;;;;;;;;;;;23.10;45.90;;;21.95;45.63;100995.19;12250757;19;19919;-84
2023/06/16 17:17:51;;;;;;;;;;;22.90;46.10;;;21.76;45.63;100993.53;12251721;19;19914;-84
2023/06/16 17:21:56;;;;;;;;;;;22.70;45.80;;;21.73;46.05;101019.56;12170382;19;19919;-84
2023/06/16 17:26:01;;;;;;;;;;;22.60;45.80;;;21.64;45.65;101005.38;12241968;19;19918;-84
2023/06/16 17:30:02;;;;;;;;;;;22.50;46.00;;;21.54;45.92;101001.94;12247579;19;19919;-84
2023/06/16 17:34:04;;;;;;;;;;;22.40;46.00;;;21.38;45.97;101013.22;12251195;19;19914;-85
2023/06/16 17:38:05;;;;;;;;;;;22.20;45.80;;;21.08;45.96;100983.25;12255585;19;19933;-86
2023/06/16 17:42:07;;;;;;;;;;;22.10;45.80;;;21.23;45.74;101027.94;12249910;19;19931;-85
2023/06/16 17:46:08;;;;;;;;;;;21.90;45.80;;;21.18;45.70;101025.72;12254272;19;19982;-85
2023/06/16 17:50:09;;;;;;;;;;;21.90;46.00;;;21.07;46.17;101002.00;12253323;19;20257;-84
2023/06/16 17:54:11;;;;;;;;;;;21.80;46.10;;;20.99;46.03;100998.25;12239340;19;19918;-84
2023/06/16 17:58:13;;;;;;;;;;;21.80;46.10;;;21.09;45.97;101019.47;12239248;19;19923;-85
2023/06/16 18:02:14;;;;;;;;;;;21.70;46.20;;;21.06;46.10;101033.03;12249239;19;19925;-85
2023/06/16 18:06:16;;;;;;;;;;;21.70;46.20;;;21.11;45.76;101046.69;12250769;19;19923;-84
2023/06/16 18:10:17;;;;;;;;;;;21.70;46.40;;;21.07;45.88;101032.06;12250087;19;19925;-84